createdAt,value
2019-02-11T00:01:34.192Z,0.60
2019-02-11T00:04:02.778Z,0.70
2019-02-11T00:06:31.326Z,1.43
2019-02-11T00:08:59.868Z,1.90
2019-02-11T00:11:28.461Z,1.20
2019-02-11T00:13:57.011Z,2.00
2019-02-11T00:16:25.662Z,2.70
2019-02-11T00:18:54.209Z,1.00
2019-02-11T00:21:22.856Z,1.13
2019-02-11T00:23:51.410Z,1.63
2019-02-11T00:26:19.992Z,1.07
2019-02-11T00:28:48.614Z,3.60
2019-02-11T00:31:17.291Z,0.83
2019-02-11T00:33:45.921Z,1.10
2019-02-11T00:36:14.481Z,1.77
2019-02-11T00:38:43.062Z,3.37
2019-02-11T00:41:11.686Z,0.90
2019-02-11T00:43:40.332Z,1.37
2019-02-11T00:46:08.881Z,1.77
2019-02-11T00:48:37.525Z,1.47
2019-02-11T00:51:06.077Z,1.17
2019-02-11T00:53:34.660Z,1.60
2019-02-11T00:56:03.214Z,1.60
2019-02-11T00:58:31.857Z,0.87
2019-02-11T01:01:00.445Z,2.53
2019-02-11T01:03:28.997Z,1.87
2019-02-11T01:05:57.578Z,1.57
2019-02-11T01:08:26.224Z,2.23
2019-02-11T01:10:54.924Z,1.27
2019-02-11T01:13:27.878Z,2.33
2019-02-11T01:15:53.701Z,1.13
2019-02-11T01:18:22.253Z,3.50
2019-02-11T01:20:50.832Z,2.60
2019-02-11T01:23:19.448Z,3.43
2019-02-11T01:25:48.165Z,2.67
2019-02-11T01:28:16.786Z,3.33
2019-02-11T01:30:48.165Z,2.53
2019-02-11T01:33:16.740Z,2.50
2019-02-11T01:35:45.285Z,1.90
2019-02-11T01:38:13.868Z,2.17
2019-02-11T01:40:42.421Z,3.13
2019-02-11T01:43:11.037Z,4.13
2019-02-11T01:45:39.709Z,4.63
2019-02-11T01:48:08.252Z,3.47
2019-02-11T01:50:36.906Z,4.07
2019-02-11T01:53:05.521Z,4.57
2019-02-11T01:55:34.177Z,4.37
2019-02-11T01:58:02.799Z,4.37
2019-02-11T02:00:31.446Z,4.53
2019-02-11T02:03:00.043Z,3.43
2019-02-11T02:05:29.528Z,4.70
2019-02-11T02:07:58.112Z,4.57
2019-02-11T02:10:26.737Z,2.50
2019-02-11T02:12:55.316Z,4.93
2019-02-11T02:15:23.939Z,2.97
2019-02-11T02:17:52.543Z,5.67
2019-02-11T02:20:21.102Z,3.53
2019-02-11T02:22:49.768Z,3.53
2019-02-11T02:25:18.394Z,2.20
2019-02-11T02:27:46.958Z,3.07
2019-02-11T02:30:15.613Z,3.17
2019-02-11T02:32:44.174Z,4.57
2019-02-11T02:35:12.822Z,4.07
2019-02-11T02:37:41.530Z,3.40
2019-02-11T02:40:10.654Z,3.80
2019-02-11T02:42:39.279Z,3.90
2019-02-11T02:45:10.004Z,7.03
2019-02-11T02:47:38.565Z,3.50
2019-02-11T02:50:09.298Z,3.77
2019-02-11T02:52:37.924Z,2.83
2019-02-11T02:55:08.158Z,2.27
2019-02-11T02:57:36.805Z,2.67
2019-02-11T03:00:08.557Z,1.60
2019-02-11T03:02:37.144Z,1.70
2019-02-11T03:05:08.459Z,2.17
2019-02-11T03:07:37.177Z,2.47
2019-02-11T03:10:08.274Z,1.20
2019-02-11T03:12:36.885Z,1.77
2019-02-11T03:15:08.675Z,1.80
2019-02-11T03:17:37.330Z,0.97
2019-02-11T03:20:08.541Z,1.20
2019-02-11T03:22:37.291Z,2.80
2019-02-11T03:25:07.771Z,2.63
2019-02-11T03:27:36.427Z,1.37
2019-02-11T03:30:09.749Z,0.93
2019-02-11T03:32:38.308Z,0.83
2019-02-11T03:35:07.235Z,2.10
2019-02-11T03:37:35.867Z,2.70
2019-02-11T03:40:07.638Z,1.23
2019-02-11T03:42:36.266Z,0.83
2019-02-11T03:45:11.052Z,0.87
2019-02-11T03:47:39.751Z,0.97
2019-02-11T03:50:10.269Z,0.73
2019-02-11T03:52:38.971Z,0.83
2019-02-11T03:55:08.722Z,0.40
2019-02-11T03:57:38.220Z,1.03
2019-02-11T04:00:09.883Z,0.63
2019-02-11T04:02:38.505Z,1.37
2019-02-11T04:05:07.502Z,0.60
2019-02-11T04:07:36.242Z,2.33
2019-02-11T04:10:08.111Z,1.47
2019-02-11T04:12:36.707Z,0.40
2019-02-11T04:15:07.970Z,0.77
2019-02-11T04:17:36.591Z,1.07
2019-02-11T04:20:07.115Z,1.70
2019-02-11T04:22:35.774Z,1.13
2019-02-11T04:25:05.666Z,0.93
2019-02-11T04:27:34.232Z,0.87
2019-02-11T04:30:02.825Z,0.70
2019-02-11T04:32:31.483Z,0.80
2019-02-11T04:35:00.046Z,0.63
2019-02-11T04:37:28.706Z,1.23
2019-02-11T04:39:57.299Z,3.23
2019-02-11T04:42:25.852Z,1.33
2019-02-11T04:44:54.546Z,2.00
2019-02-11T04:47:23.179Z,0.50
2019-02-11T04:49:51.829Z,2.13
2019-02-11T04:52:20.417Z,1.23
2019-02-11T04:54:48.978Z,3.17
2019-02-11T04:57:17.570Z,1.63
2019-02-11T04:59:46.133Z,3.43
2019-02-11T05:02:14.715Z,1.80
2019-02-11T05:04:43.269Z,3.00
2019-02-11T05:07:11.857Z,2.07
2019-02-11T05:09:40.424Z,0.70
2019-02-11T05:12:09.019Z,1.47
2019-02-11T05:14:43.547Z,1.40
2019-02-11T05:17:07.874Z,1.80
2019-02-11T05:19:36.431Z,1.47
2019-02-11T05:22:05.021Z,1.70
2019-02-11T05:24:33.647Z,1.67
2019-02-11T05:27:02.280Z,1.97
2019-02-11T05:29:30.874Z,2.80
2019-02-11T05:31:59.507Z,2.50
2019-02-11T05:34:28.098Z,2.97
2019-02-11T05:36:56.730Z,2.77
2019-02-11T05:39:25.336Z,1.37
2019-02-11T05:41:53.961Z,1.87
2019-02-11T05:44:22.605Z,2.83
2019-02-11T05:46:51.201Z,1.13
2019-02-11T05:49:19.850Z,1.77
2019-02-11T05:51:48.410Z,1.13
2019-02-11T05:54:17.008Z,2.10
2019-02-11T05:56:45.573Z,1.33
2019-02-11T05:59:14.126Z,2.53
2019-02-11T06:01:42.858Z,1.43
2019-02-11T06:04:11.491Z,3.40
2019-02-11T06:06:40.088Z,3.00
2019-02-11T06:09:08.641Z,4.87
2019-02-11T06:11:37.230Z,2.97
2019-02-11T06:14:05.990Z,2.57
2019-02-11T06:16:34.551Z,1.60
2019-02-11T06:19:03.147Z,2.97
2019-02-11T06:21:31.709Z,4.43
2019-02-11T06:24:00.315Z,3.17
2019-02-11T06:26:28.904Z,3.83
2019-02-11T06:28:57.463Z,3.37
2019-02-11T06:31:26.047Z,3.23
2019-02-11T06:33:54.670Z,4.47
2019-02-11T06:36:23.300Z,4.87
2019-02-11T06:38:51.956Z,5.63
2019-02-11T06:41:22.148Z,4.63
2019-02-11T06:43:50.685Z,5.87
2019-02-11T06:46:19.251Z,7.70
2019-02-11T06:48:47.920Z,7.20
2019-02-11T06:51:16.475Z,6.00
2019-02-11T06:53:45.069Z,8.37
2019-02-11T06:56:13.770Z,8.77
2019-02-11T06:58:42.350Z,7.03
2019-02-11T07:01:11.054Z,7.00
2019-02-11T07:03:39.652Z,9.63
2019-02-11T07:06:08.291Z,14.40
2019-02-11T07:08:36.862Z,12.13
2019-02-11T07:11:05.592Z,7.20
2019-02-11T07:13:34.220Z,11.00
2019-02-11T07:16:03.328Z,8.77
2019-02-11T07:18:32.852Z,9.70
2019-02-11T07:21:01.544Z,8.80
2019-02-11T07:23:30.253Z,8.43
2019-02-11T07:25:58.995Z,10.73
2019-02-11T07:28:27.700Z,8.07
2019-02-11T07:30:56.364Z,8.03
2019-02-11T07:33:24.941Z,7.83
2019-02-11T07:35:53.501Z,8.90
2019-02-11T07:38:22.082Z,10.50
2019-02-11T07:40:50.646Z,9.40
2019-02-11T07:43:23.298Z,8.93
2019-02-11T07:45:59.439Z,10.13
2019-02-11T07:48:29.611Z,7.40
2019-02-11T07:50:58.262Z,7.60
2019-02-11T07:53:26.859Z,7.67
2019-02-11T07:55:55.409Z,8.80
2019-02-11T07:58:24.111Z,11.10
2019-02-11T08:00:52.706Z,12.13
2019-02-11T08:03:21.330Z,7.67
2019-02-11T08:05:49.929Z,6.60
2019-02-11T08:08:18.498Z,12.50
2019-02-11T08:10:47.090Z,9.73
2019-02-11T08:13:15.642Z,11.23
2019-02-11T08:15:44.281Z,7.70
2019-02-11T08:18:12.943Z,9.13
2019-02-11T08:20:41.500Z,10.90
2019-02-11T08:23:13.316Z,10.73
2019-02-11T08:25:40.311Z,10.70
2019-02-11T08:28:09.047Z,7.27
2019-02-11T08:30:37.593Z,9.50
2019-02-11T08:33:06.182Z,10.80
2019-02-11T08:35:34.883Z,10.93
2019-02-11T08:38:03.505Z,9.43
2019-02-11T08:40:32.224Z,11.30
2019-02-11T08:43:00.782Z,12.67
2019-02-11T08:45:29.466Z,10.90
2019-02-11T08:47:58.086Z,12.97
2019-02-11T08:50:26.686Z,10.10
2019-02-11T08:52:55.255Z,10.30
2019-02-11T08:55:23.851Z,11.17
2019-02-11T08:57:52.476Z,9.80
2019-02-11T09:00:21.109Z,11.20
2019-02-11T09:02:49.762Z,9.87
2019-02-11T09:05:18.385Z,13.20
2019-02-11T09:07:47.064Z,11.27
2019-02-11T09:10:15.859Z,11.70
2019-02-11T09:12:44.445Z,11.03
2019-02-11T09:15:13.455Z,12.60
2019-02-11T09:17:42.088Z,14.73
2019-02-11T09:20:11.586Z,14.23
2019-02-11T09:22:40.214Z,18.10
2019-02-11T09:25:10.844Z,11.77
2019-02-11T09:27:39.543Z,10.77
2019-02-11T09:30:17.943Z,13.17
2019-02-11T09:32:46.600Z,13.67
2019-02-11T09:35:15.262Z,17.53
2019-02-11T09:37:43.995Z,12.93
2019-02-11T09:40:15.194Z,15.83
2019-02-11T09:42:43.924Z,17.63
2019-02-11T09:45:15.555Z,13.80
2019-02-11T09:47:44.139Z,19.33
2019-02-11T09:50:15.890Z,14.93
2019-02-11T09:52:44.542Z,12.00
2019-02-11T09:55:18.731Z,16.17
2019-02-11T09:57:47.384Z,12.73
2019-02-11T10:00:16.230Z,12.93
2019-02-11T10:02:44.960Z,12.03
2019-02-11T10:05:13.775Z,12.57
2019-02-11T10:07:42.655Z,14.00
2019-02-11T10:10:11.406Z,17.20
2019-02-11T10:12:40.048Z,14.20
2019-02-11T10:15:11.777Z,14.10
2019-02-11T10:17:40.475Z,11.17
2019-02-11T10:20:11.783Z,11.30
2019-02-11T10:22:40.480Z,12.33
2019-02-11T10:25:12.151Z,11.60
2019-02-11T10:27:40.786Z,10.63
2019-02-11T10:30:12.325Z,9.47
2019-02-11T10:32:41.036Z,9.20
2019-02-11T10:35:11.558Z,8.60
2019-02-11T10:37:40.262Z,12.83
2019-02-11T10:40:11.395Z,9.80
2019-02-11T10:42:39.953Z,15.10
2019-02-11T10:45:11.453Z,10.30
2019-02-11T10:47:41.387Z,10.00
2019-02-11T10:50:12.858Z,11.67
2019-02-11T10:52:41.594Z,11.27
2019-02-11T10:55:15.775Z,11.60
2019-02-11T10:57:44.602Z,16.93
2019-02-11T11:00:16.267Z,10.90
2019-02-11T11:02:44.856Z,11.30
2019-02-11T11:05:14.629Z,13.47
2019-02-11T11:07:43.465Z,10.57
2019-02-11T11:10:15.567Z,9.57
2019-02-11T11:12:44.269Z,10.63
2019-02-11T11:15:12.998Z,11.07
2019-02-11T11:17:43.627Z,10.60
2019-02-11T11:20:15.299Z,14.63
2019-02-11T11:22:44.003Z,10.13
2019-02-11T11:25:13.704Z,11.40
2019-02-11T11:27:42.334Z,10.93
2019-02-11T11:30:18.614Z,10.17
2019-02-11T11:32:47.519Z,14.43
2019-02-11T11:35:17.526Z,11.20
2019-02-11T11:37:46.227Z,11.33
2019-02-11T11:40:19.251Z,12.37
2019-02-11T11:42:47.951Z,9.47
2019-02-11T11:45:18.650Z,11.17
2019-02-11T11:47:47.413Z,9.47
2019-02-11T11:50:17.247Z,12.27
2019-02-11T11:52:45.918Z,9.70
2019-02-11T11:55:17.400Z,8.90
2019-02-11T11:57:46.054Z,12.43
2019-02-11T12:00:23.312Z,10.33
2019-02-11T12:03:01.641Z,11.30
2019-02-11T12:05:22.463Z,9.83
2019-02-11T12:07:51.039Z,8.60
2019-02-11T12:10:19.907Z,8.73
2019-02-11T12:12:48.642Z,9.03
2019-02-11T12:15:20.130Z,9.87
2019-02-11T12:17:48.929Z,7.97
2019-02-11T12:20:17.580Z,11.37
2019-02-11T12:22:46.251Z,9.57
2019-02-11T12:25:16.992Z,9.10
2019-02-11T12:27:45.702Z,9.20
2019-02-11T12:30:16.792Z,8.73
2019-02-11T12:32:45.397Z,7.33
2019-02-11T12:35:14.637Z,7.60
2019-02-11T12:37:43.457Z,11.47
2019-02-11T12:40:13.585Z,10.67
2019-02-11T12:42:42.269Z,9.57
2019-02-11T12:45:16.286Z,7.43
2019-02-11T12:47:44.956Z,10.20
2019-02-11T12:50:15.802Z,9.40
2019-02-11T12:52:44.406Z,7.47
2019-02-11T12:55:14.754Z,9.83
2019-02-11T12:57:43.488Z,7.57
2019-02-11T13:00:20.871Z,11.43
2019-02-11T13:02:49.617Z,12.00
2019-02-11T13:05:22.159Z,15.37
2019-02-11T13:07:48.727Z,10.30
2019-02-11T13:10:21.859Z,8.43
2019-02-11T13:12:50.587Z,14.37
2019-02-11T13:15:52.771Z,8.67
2019-02-11T13:17:50.410Z,13.33
2019-02-11T13:20:19.406Z,14.83
2019-02-11T13:22:48.413Z,7.80
2019-02-11T13:25:18.246Z,10.03
2019-02-11T13:27:47.569Z,7.43
2019-02-11T13:30:21.512Z,11.00
2019-02-11T13:32:50.497Z,7.67
2019-02-11T13:35:19.437Z,11.40
2019-02-11T13:37:48.112Z,10.40
2019-02-11T13:40:16.883Z,11.97
2019-02-11T13:42:45.644Z,14.43
2019-02-11T13:45:21.151Z,13.00
2019-02-11T13:47:56.252Z,14.83
2019-02-11T13:50:25.573Z,10.67
2019-02-11T13:52:54.694Z,10.33
2019-02-11T13:55:23.899Z,11.43
2019-02-11T13:57:53.207Z,14.80
2019-02-11T14:00:27.294Z,13.87
2019-02-11T14:02:58.497Z,9.57
2019-02-11T14:05:28.597Z,5.27
2019-02-11T14:07:59.702Z,12.80
2019-02-11T14:10:28.705Z,8.63
2019-02-11T14:12:57.544Z,8.33
2019-02-11T14:15:26.294Z,8.87
2019-02-11T14:18:10.534Z,9.43
2019-02-11T14:20:26.941Z,11.37
2019-02-11T14:22:55.595Z,10.13
2019-02-11T14:25:40.712Z,6.57
2019-02-11T14:27:54.612Z,5.73
2019-02-11T14:30:23.305Z,12.73
2019-02-11T14:32:52.134Z,6.07
2019-02-11T14:35:21.271Z,7.03
2019-02-11T14:37:49.947Z,10.80
2019-02-11T14:40:18.913Z,7.73
2019-02-11T14:42:47.643Z,8.07
2019-02-11T14:45:20.483Z,8.67
2019-02-11T14:47:49.124Z,11.47
2019-02-11T14:50:17.854Z,8.17
2019-02-11T14:52:46.474Z,7.50
2019-02-11T14:55:15.211Z,11.63
2019-02-11T14:57:43.911Z,7.57
2019-02-11T15:00:20.925Z,12.90
2019-02-11T15:02:49.646Z,10.07
2019-02-11T15:05:19.371Z,6.90
2019-02-11T15:07:48.641Z,8.83
2019-02-11T15:10:19.559Z,13.13
2019-02-11T15:12:48.008Z,12.13
2019-02-11T15:15:16.672Z,8.73
2019-02-11T15:17:46.577Z,12.93
2019-02-11T15:20:18.303Z,13.07
2019-02-11T15:22:46.922Z,10.77
2019-02-11T15:25:18.291Z,8.37
2019-02-11T15:27:47.944Z,10.10
2019-02-11T15:30:20.407Z,12.07
2019-02-11T15:32:49.047Z,17.57
2019-02-11T15:35:17.759Z,12.10
2019-02-11T15:37:46.487Z,8.90
2019-02-11T15:40:22.875Z,9.90
2019-02-11T15:42:51.548Z,13.90
2019-02-11T15:45:20.214Z,10.80
2019-02-11T15:47:48.885Z,10.73
2019-02-11T15:50:18.390Z,7.07
2019-02-11T15:52:47.111Z,8.50
2019-02-11T15:55:17.660Z,12.77
2019-02-11T15:57:46.359Z,10.00
2019-02-11T16:00:16.890Z,9.83
2019-02-11T16:02:45.625Z,10.23
2019-02-11T16:05:16.636Z,12.47
2019-02-11T16:07:44.770Z,13.80
2019-02-11T16:10:16.243Z,9.57
2019-02-11T16:12:45.061Z,8.50
2019-02-11T16:15:13.901Z,10.30
2019-02-11T16:17:43.557Z,14.03
2019-02-11T16:20:14.510Z,15.10
2019-02-11T16:22:43.642Z,17.17
2019-02-11T16:25:16.980Z,9.57
2019-02-11T16:27:45.538Z,9.63
2019-02-11T16:30:20.750Z,11.90
2019-02-11T16:32:49.460Z,7.57
2019-02-11T16:35:19.125Z,13.10
2019-02-11T16:37:47.771Z,9.07
2019-02-11T16:40:28.407Z,11.97
2019-02-11T16:42:56.976Z,10.87
2019-02-11T16:45:25.708Z,9.80
2019-02-11T16:47:54.691Z,10.10
2019-02-11T16:50:23.564Z,8.50
2019-02-11T16:52:52.197Z,14.43
2019-02-11T16:55:20.865Z,8.17
2019-02-11T16:57:49.610Z,9.50
2019-02-11T17:00:21.563Z,8.50
2019-02-11T17:02:50.218Z,9.47
2019-02-11T17:05:18.981Z,9.60
2019-02-11T17:07:47.698Z,12.50
2019-02-11T17:10:16.667Z,11.07
2019-02-11T17:12:45.578Z,11.57
2019-02-11T17:15:18.650Z,12.30
2019-02-11T17:17:47.374Z,8.70
2019-02-11T17:20:16.871Z,8.10
2019-02-11T17:22:45.733Z,8.60
2019-02-11T17:25:16.549Z,10.83
2019-02-11T17:27:45.383Z,8.23
2019-02-11T17:30:25.633Z,8.77
2019-02-11T17:32:54.328Z,7.93
2019-02-11T17:35:23.059Z,7.20
2019-02-11T17:37:51.761Z,5.17
2019-02-11T17:40:21.291Z,8.30
2019-02-11T17:42:49.911Z,12.87
2019-02-11T17:48:07.208Z,6.93
2019-02-11T17:50:36.695Z,8.33
2019-02-11T17:53:14.627Z,10.03
2019-02-11T17:55:43.349Z,8.63
2019-02-11T17:58:12.239Z,9.47
2019-02-11T18:00:45.466Z,9.80
2019-02-11T18:03:14.131Z,9.50
2019-02-11T18:05:42.769Z,8.37
2019-02-11T18:08:11.510Z,10.73
2019-02-11T18:10:40.235Z,7.40
2019-02-11T18:13:08.944Z,9.93
2019-02-11T18:15:37.623Z,12.87
2019-02-11T18:18:06.312Z,15.47
2019-02-11T18:20:35.038Z,15.57
2019-02-11T18:23:03.696Z,9.93
2019-02-11T18:25:32.366Z,10.53
2019-02-11T18:28:01.061Z,12.90
2019-02-11T18:30:29.809Z,9.00
2019-02-11T18:32:58.522Z,12.83
2019-02-11T18:35:27.208Z,9.80
2019-02-11T18:37:55.928Z,12.17
2019-02-11T18:40:25.953Z,15.40
2019-02-11T18:42:54.696Z,7.67
2019-02-11T18:45:24.345Z,10.47
2019-02-11T18:47:53.006Z,11.70
2019-02-11T18:50:21.717Z,9.07
2019-02-11T18:52:50.473Z,11.17
2019-02-11T18:55:20.607Z,11.03
2019-02-11T18:57:49.325Z,17.23
2019-02-11T19:00:19.677Z,11.00
2019-02-11T19:02:49.129Z,12.87
2019-02-11T19:05:19.377Z,13.67
2019-02-11T19:07:48.059Z,16.27
2019-02-11T19:10:18.221Z,11.33
2019-02-11T19:12:48.081Z,13.87
2019-02-11T19:15:18.676Z,11.23
2019-02-11T19:17:47.379Z,13.73
2019-02-11T19:20:17.399Z,10.97
2019-02-11T19:22:46.163Z,13.33
2019-02-11T19:25:16.422Z,17.77
2019-02-11T19:27:46.450Z,16.50
2019-02-11T19:30:18.137Z,18.00
2019-02-11T19:32:47.021Z,13.10
2019-02-11T19:35:17.986Z,18.10
2019-02-11T19:37:51.137Z,9.53
2019-02-11T19:40:23.097Z,11.40
2019-02-11T19:42:53.272Z,12.97
2019-02-11T19:45:23.436Z,16.97
2019-02-11T19:47:53.109Z,13.53
2019-02-11T19:50:22.452Z,13.43
2019-02-11T19:52:51.503Z,10.00
2019-02-11T19:55:20.210Z,14.37
2019-02-11T19:57:48.850Z,11.80
2019-02-11T20:00:23.840Z,16.63
2019-02-11T20:02:54.482Z,12.57
2019-02-11T20:05:24.924Z,13.27
2019-02-11T20:07:53.664Z,11.27
2019-02-11T20:10:24.246Z,16.23
2019-02-11T20:12:53.780Z,11.97
2019-02-11T20:15:30.744Z,11.03
2019-02-11T20:18:00.316Z,18.03
2019-02-11T20:20:29.922Z,11.87
2019-02-11T20:22:59.160Z,11.83
2019-02-11T20:25:28.132Z,20.50
2019-02-11T20:27:57.286Z,12.60
2019-02-11T20:30:30.366Z,9.53
2019-02-11T20:32:59.955Z,14.87
2019-02-11T20:35:28.855Z,14.47
2019-02-11T20:37:58.962Z,14.67
2019-02-11T20:40:29.460Z,14.33
2019-02-11T20:42:58.592Z,16.37
2019-02-11T20:45:28.818Z,13.20
2019-02-11T20:47:57.521Z,14.30
2019-02-11T20:50:26.292Z,16.37
2019-02-11T20:52:55.383Z,14.50
2019-02-11T20:55:24.255Z,15.33
2019-02-11T20:57:56.939Z,16.03
2019-02-11T21:00:26.358Z,14.77
2019-02-11T21:02:55.327Z,17.23
2019-02-11T21:05:24.659Z,19.70
2019-02-11T21:07:53.390Z,15.03
2019-02-11T21:10:23.726Z,20.57
2019-02-11T21:12:52.314Z,15.77
2019-02-11T21:15:21.125Z,13.87
2019-02-11T21:17:49.770Z,18.57
2019-02-11T21:20:24.874Z,14.50
2019-02-11T21:22:53.654Z,17.07
2019-02-11T21:25:22.315Z,16.60
2019-02-11T21:27:51.041Z,12.97
2019-02-11T21:30:19.851Z,15.30
2019-02-11T21:32:48.506Z,21.23
2019-02-11T21:35:17.600Z,17.97
2019-02-11T21:37:46.359Z,14.17
2019-02-11T21:40:15.090Z,17.87
2019-02-11T21:42:44.737Z,15.50
2019-02-11T21:45:15.280Z,21.20
2019-02-11T21:47:44.162Z,16.90
2019-02-11T21:50:26.069Z,14.63
2019-02-11T21:52:48.946Z,16.93
2019-02-11T21:55:22.236Z,12.63
2019-02-11T21:57:51.698Z,17.63
2019-02-11T22:00:21.477Z,18.47
2019-02-11T22:02:50.810Z,14.67
2019-02-11T22:05:20.054Z,16.37
2019-02-11T22:07:48.850Z,21.57
2019-02-11T22:10:22.905Z,21.33
2019-02-11T22:12:52.267Z,22.07
2019-02-11T22:15:20.965Z,23.03
2019-02-11T22:17:49.626Z,15.40
2019-02-11T22:20:21.022Z,18.90
2019-02-11T22:22:50.652Z,18.53
2019-02-11T22:25:19.382Z,21.50
2019-02-11T22:27:48.140Z,19.90
2019-02-11T22:30:24.593Z,19.97
2019-02-11T22:32:53.327Z,27.10
2019-02-11T22:35:22.633Z,21.20
2019-02-11T22:37:51.776Z,22.40
2019-02-11T22:40:20.489Z,19.23
2019-02-11T22:42:49.226Z,27.03
2019-02-11T22:45:20.283Z,20.57
2019-02-11T22:47:50.253Z,27.47
2019-02-11T22:50:19.289Z,25.70
2019-02-11T22:52:48.100Z,24.53
2019-02-11T22:55:16.763Z,33.47
2019-02-11T22:57:45.499Z,27.43
2019-02-11T23:00:19.880Z,26.43
2019-02-11T23:02:48.634Z,22.07
2019-02-11T23:05:17.348Z,27.77
2019-02-11T23:07:46.059Z,29.77
2019-02-11T23:10:14.883Z,22.90
2019-02-11T23:12:43.600Z,24.03
2019-02-11T23:15:13.825Z,19.87
2019-02-11T23:17:42.523Z,26.60
2019-02-11T23:20:11.250Z,25.87
2019-02-11T23:22:39.959Z,25.90
2019-02-11T23:25:08.696Z,24.47
2019-02-11T23:27:37.320Z,24.40
2019-02-11T23:30:13.533Z,25.30
2019-02-11T23:32:39.846Z,21.43
2019-02-11T23:35:08.653Z,28.07
2019-02-11T23:37:37.392Z,27.47
2019-02-11T23:40:08.603Z,26.67
2019-02-11T23:42:37.354Z,24.90
2019-02-11T23:45:10.518Z,29.07
2019-02-11T23:47:39.227Z,18.63
2019-02-11T23:50:10.650Z,21.63
2019-02-11T23:52:40.055Z,20.33
2019-02-11T23:55:10.203Z,27.00
2019-02-11T23:57:38.875Z,28.23
